Time;durP1;ratioP1;P1;durP2;ratioP2;P2;SDS_P1;SDS_P2;PMS_P1;PMS_P2;Temp;Humidity;BMP_temperature;BMP_pressure;BME280_temperature;BME280_humidity;BME280_pressure;Samples;Min_cycle;Max_cycle;Signal;HPM_P1;HPM_P2
2022/09/26 00:01:20;;;;;;;6.50;4.45;;;11.20;99.90;;;;;;5050682;28;20040;-65
2022/09/26 00:03:47;;;;;;;7.90;4.45;;;11.20;99.90;;;;;;5024239;28;20041;-65
2022/09/26 00:06:15;;;;;;;9.55;4.40;;;11.20;99.90;;;;;;5049494;28;20475;-65
2022/09/26 00:08:40;;;;;;;8.82;4.00;;;11.20;99.90;;;;;;5050927;28;20037;-66
2022/09/26 00:11:08;;;;;;;10.88;4.60;;;11.20;99.90;;;;;;5048434;28;20506;-65
2022/09/26 00:13:36;;;;;;;8.48;4.30;;;11.10;99.90;;;;;;5023324;28;20037;-66
2022/09/26 00:16:02;;;;;;;8.13;4.43;;;11.10;99.90;;;;;;5031415;28;20061;-65
2022/09/26 00:18:28;;;;;;;6.97;4.45;;;11.10;99.90;;;;;;5032851;28;20045;-65
2022/09/26 00:21:02;;;;;;;6.05;3.95;;;11.10;99.90;;;;;;5044065;28;20044;-65
2022/09/26 00:23:27;;;;;;;8.27;4.38;;;11.10;99.90;;;;;;5044469;28;20037;-65
2022/09/26 00:25:56;;;;;;;6.68;4.38;;;11.10;99.90;;;;;;5032728;28;20097;-64
2022/09/26 00:28:21;;;;;;;7.32;4.70;;;11.20;99.90;;;;;;5041848;28;20038;-64
2022/09/26 00:30:47;;;;;;;7.60;4.15;;;11.20;99.90;;;;;;5046922;28;20074;-61
2022/09/26 00:33:13;;;;;;;8.93;4.00;;;11.20;99.90;;;;;;5050127;28;20044;-66
2022/09/26 00:35:38;;;;;;;7.93;4.50;;;11.10;99.90;;;;;;5049223;28;20068;-63
2022/09/26 00:38:05;;;;;;;10.25;4.60;;;11.10;99.90;;;;;;5043829;28;20037;-65
2022/09/26 00:40:31;;;;;;;8.45;4.65;;;11.10;99.90;;;;;;5050323;28;20114;-65
2022/09/26 00:42:58;;;;;;;11.20;4.50;;;11.10;99.90;;;;;;5032450;28;20550;-65
2022/09/26 00:45:29;;;;;;;8.35;4.30;;;11.10;99.90;;;;;;5045248;28;20043;-65
2022/09/26 00:48:02;;;;;;;7.68;4.45;;;11.10;99.90;;;;;;5047693;28;20091;-65
2022/09/26 00:50:36;;;;;;;8.57;4.18;;;11.10;99.90;;;;;;5050469;28;20118;-64
2022/09/26 00:53:08;;;;;;;5.75;4.15;;;11.10;99.90;;;;;;5038146;28;20404;-63
2022/09/26 00:56:04;;;;;;;8.38;4.45;;;11.10;99.90;;;;;;5044650;28;20037;-64
2022/09/26 00:58:37;;;;;;;6.97;4.38;;;11.10;99.90;;;;;;5046877;28;20090;-65
2022/09/26 01:01:03;;;;;;;6.93;4.13;;;11.10;99.90;;;;;;5032058;28;20040;-65
2022/09/26 01:03:30;;;;;;;7.47;3.90;;;11.10;99.90;;;;;;5044515;28;20049;-65
2022/09/26 01:05:58;;;;;;;7.63;3.95;;;11.10;99.90;;;;;;5047346;28;20048;-64
2022/09/26 01:08:39;;;;;;;6.25;4.00;;;11.10;99.90;;;;;;5049948;28;20170;-65
2022/09/26 01:11:05;;;;;;;6.05;3.65;;;11.20;99.90;;;;;;5043878;28;20044;-64
2022/09/26 01:13:33;;;;;;;7.53;3.85;;;11.20;99.90;;;;;;5049498;28;20048;-64
2022/09/26 01:15:58;;;;;;;5.93;3.85;;;11.20;99.90;;;;;;5032384;28;20086;-64
2022/09/26 01:18:24;;;;;;;7.25;4.15;;;11.20;99.90;;;;;;5040935;28;20041;-65
2022/09/26 01:21:05;;;;;;;10.15;3.90;;;11.20;99.90;;;;;;5041028;28;20052;-65
2022/09/26 01:23:46;;;;;;;8.63;4.10;;;11.20;99.90;;;;;;5050225;28;20087;-64
2022/09/26 01:26:38;;;;;;;7.82;3.65;;;11.20;99.90;;;;;;5045474;28;20166;-65
2022/09/26 01:29:28;;;;;;;13.48;4.13;;;11.20;99.90;;;;;;5044612;28;20569;-65
2022/09/26 01:35:12;;;;;;;7.00;4.13;;;11.10;99.90;;;;;;5054124;28;20127;-65
2022/09/26 01:37:46;;;;;;;8.45;4.47;;;11.20;99.90;;;;;;5051470;28;20037;-65
2022/09/26 01:40:28;;;;;;;6.45;4.45;;;11.10;99.90;;;;;;5035802;28;20601;-65
2022/09/26 01:43:30;;;;;;;8.07;4.20;;;11.10;99.90;;;;;;5049870;28;20048;-62
2022/09/26 01:46:01;;;;;;;7.28;4.30;;;11.10;99.90;;;;;;5048539;28;20040;-65
2022/09/26 01:48:32;;;;;;;;;;;11.10;99.90;;;;;;5053905;28;20044;-65
2022/09/26 01:51:10;;;;;;;6.20;3.80;;;11.20;99.90;;;;;;5035888;28;19952;-64
2022/09/26 01:53:47;;;;;;;8.55;4.07;;;11.20;99.90;;;;;;5043921;28;20047;-65
2022/09/26 01:56:18;;;;;;;7.25;4.18;;;11.20;99.90;;;;;;5045316;28;20044;-65
2022/09/26 01:58:47;;;;;;;8.35;4.65;;;11.20;99.90;;;;;;5053688;28;20120;-65
2022/09/26 02:01:17;;;;;;;8.27;4.10;;;11.20;99.90;;;;;;5040686;28;20120;-65
2022/09/26 02:03:50;;;;;;;8.38;4.60;;;11.20;99.90;;;;;;5035085;28;20403;-65
2022/09/26 02:06:28;;;;;;;8.15;4.10;;;11.20;99.90;;;;;;5053424;28;20052;-65
2022/09/26 02:09:02;;;;;;;11.13;4.60;;;11.20;99.90;;;;;;5044665;28;20561;-63
2022/09/26 02:11:29;;;;;;;7.32;4.10;;;11.20;99.90;;;;;;5034661;28;20048;-64
2022/09/26 02:14:03;;;;;;;6.32;4.03;;;11.30;99.90;;;;;;5061393;22;20055;-65
2022/09/26 02:16:46;;;;;;;6.38;4.32;;;11.30;99.90;;;;;;5043776;28;20064;-65
2022/09/26 02:19:38;;;;;;;6.20;4.53;;;11.30;99.90;;;;;;5030777;28;20090;-65
2022/09/26 02:22:03;;;;;;;;;;;11.40;99.90;;;;;;5042008;28;20179;-65
2022/09/26 02:24:29;;;;;;;10.07;4.57;;;11.40;99.90;;;;;;5046104;28;19920;-65
2022/09/26 02:26:55;;;;;;;8.35;4.47;;;11.40;99.90;;;;;;5045187;28;20112;-65
2022/09/26 02:29:21;;;;;;;8.63;5.05;;;11.40;99.90;;;;;;5052466;28;20040;-65
2022/09/26 02:31:57;;;;;;;8.68;5.32;;;11.40;99.90;;;;;;5052597;28;20025;-65
2022/09/26 02:34:24;;;;;;;13.00;5.03;;;11.40;99.90;;;;;;5040582;28;20155;-65
2022/09/26 02:36:51;;;;;;;11.20;5.20;;;11.40;99.90;;;;;;5032216;28;20131;-65
2022/09/26 02:39:17;;;;;;;9.55;5.10;;;11.40;99.90;;;;;;5051830;28;20041;-65
2022/09/26 02:41:47;;;;;;;8.68;4.88;;;11.40;99.90;;;;;;5046097;28;20099;-65
2022/09/26 02:44:58;;;;;;;10.02;5.50;;;11.40;99.90;;;;;;5051890;28;20037;-65
2022/09/26 02:47:59;;;;;;;9.10;5.25;;;11.40;99.90;;;;;;5052566;28;20041;-65
2022/09/26 02:50:43;;;;;;;8.68;5.85;;;11.40;99.90;;;;;;5027473;28;20079;-65
2022/09/26 02:53:27;;;;;;;8.95;5.50;;;11.40;99.90;;;;;;5045944;28;20041;-64
2022/09/26 02:56:17;;;;;;;9.65;5.50;;;11.40;99.90;;;;;;5040741;28;20411;-64
2022/09/26 02:59:06;;;;;;;8.77;5.22;;;11.40;99.90;;;;;;5052225;28;20098;-64
2022/09/26 03:01:47;;;;;;;10.32;6.03;;;11.30;99.90;;;;;;5051943;28;20047;-64
2022/09/26 03:04:39;;;;;;;8.50;6.10;;;11.30;99.90;;;;;;5041102;28;20040;-64
2022/09/26 03:07:10;;;;;;;10.93;6.00;;;11.30;99.90;;;;;;5044639;28;20129;-64
2022/09/26 03:09:37;;;;;;;10.50;5.82;;;11.40;99.90;;;;;;5051703;28;20049;-64
2022/09/26 03:12:06;;;;;;;11.13;6.40;;;11.30;99.90;;;;;;5051165;28;20143;-64
2022/09/26 03:14:34;;;;;;;10.52;6.55;;;11.30;99.90;;;;;;5049718;28;20518;-64
2022/09/26 03:17:01;;;;;;;11.38;6.43;;;11.30;99.90;;;;;;5048852;28;20037;-64
2022/09/26 03:19:29;;;;;;;13.50;6.35;;;11.30;99.90;;;;;;5028825;28;20102;-64
2022/09/26 03:21:54;;;;;;;13.30;6.35;;;11.30;99.90;;;;;;5031265;28;20535;-64
2022/09/26 03:24:22;;;;;;;9.57;6.03;;;11.30;99.90;;;;;;5038923;28;20112;-64
2022/09/26 03:26:49;;;;;;;11.82;7.10;;;11.30;99.90;;;;;;5051282;28;20039;-64
2022/09/26 03:29:15;;;;;;;10.88;7.35;;;11.30;99.90;;;;;;5051672;28;20047;-65
2022/09/26 03:31:41;;;;;;;12.77;7.47;;;11.20;99.90;;;;;;5048936;28;20116;-65
2022/09/26 03:34:06;;;;;;;9.30;7.10;;;11.20;99.90;;;;;;5041547;28;20136;-64
2022/09/26 03:36:32;;;;;;;15.02;7.55;;;11.20;99.90;;;;;;5051415;28;20029;-65
2022/09/26 03:38:58;;;;;;;11.57;7.72;;;11.20;99.90;;;;;;5051443;28;20033;-64
2022/09/26 03:41:23;;;;;;;12.57;8.07;;;11.30;99.90;;;;;;5020058;28;20036;-64
2022/09/26 03:43:49;;;;;;;12.73;7.88;;;11.20;99.90;;;;;;5047660;28;20120;-65
2022/09/26 03:46:15;;;;;;;13.38;8.05;;;11.20;99.90;;;;;;5051343;28;20041;-65
2022/09/26 03:48:41;;;;;;;12.98;7.72;;;11.20;99.90;;;;;;5041186;28;20052;-65
2022/09/26 03:51:09;;;;;;;14.10;7.70;;;11.20;99.90;;;;;;5048961;28;20119;-65
2022/09/26 03:53:37;;;;;;;12.75;8.00;;;11.20;99.90;;;;;;5051201;28;20060;-65
2022/09/26 03:56:13;;;;;;;11.68;7.57;;;11.20;99.90;;;;;;5046637;28;20202;-65
2022/09/26 03:58:40;;;;;;;11.43;7.90;;;11.20;99.90;;;;;;5044584;28;20045;-64
2022/09/26 04:01:11;;;;;;;13.52;7.50;;;11.20;99.90;;;;;;5050177;28;20087;-65
2022/09/26 04:03:38;;;;;;;14.27;8.23;;;11.10;99.90;;;;;;5047122;28;20104;-65
2022/09/26 04:06:05;;;;;;;15.23;8.43;;;11.20;99.90;;;;;;5045790;28;20040;-65
2022/09/26 04:08:30;;;;;;;14.60;8.73;;;11.10;99.90;;;;;;5050533;28;20516;-64
2022/09/26 04:11:04;;;;;;;17.50;9.52;;;11.10;99.90;;;;;;5050806;28;20120;-65
2022/09/26 04:13:31;;;;;;;16.35;10.18;;;11.10;99.90;;;;;;5040583;28;20034;-65
2022/09/26 04:15:57;;;;;;;16.05;9.57;;;11.10;99.90;;;;;;5050469;28;20048;-64
2022/09/26 04:18:23;;;;;;;15.57;9.95;;;11.10;99.90;;;;;;5050729;28;20502;-64
2022/09/26 04:20:49;;;;;;;17.17;10.30;;;11.10;99.90;;;;;;5047057;28;20037;-65
2022/09/26 04:23:15;;;;;;;17.23;10.23;;;11.10;99.90;;;;;;5045073;28;20033;-65
2022/09/26 04:25:40;;;;;;;19.40;10.43;;;11.10;99.90;;;;;;5050186;28;20052;-65
2022/09/26 04:28:07;;;;;;;16.45;11.10;;;11.10;99.90;;;;;;5050381;28;20052;-65
2022/09/26 04:30:32;;;;;;;18.27;11.60;;;11.10;99.90;;;;;;5044911;28;20029;-65
2022/09/26 04:32:58;;;;;;;19.17;12.68;;;11.10;99.90;;;;;;5049461;28;20032;-65
2022/09/26 04:35:24;;;;;;;18.73;11.55;;;11.10;99.90;;;;;;5050213;28;20037;-65
2022/09/26 04:37:50;;;;;;;20.63;11.68;;;11.10;99.90;;;;;;5042765;28;20045;-65
2022/09/26 04:40:16;;;;;;;19.30;11.35;;;11.10;99.90;;;;;;5049278;28;20036;-64
2022/09/26 04:42:41;;;;;;;19.80;11.35;;;11.10;99.90;;;;;;5045705;28;20033;-64
2022/09/26 04:45:07;;;;;;;19.10;12.00;;;11.10;99.90;;;;;;5048612;28;20044;-65
2022/09/26 04:47:33;;;;;;;17.48;12.43;;;11.00;99.90;;;;;;5045335;28;20029;-65
2022/09/26 04:49:59;;;;;;;19.75;11.43;;;11.00;99.90;;;;;;5041612;28;20560;-66
2022/09/26 04:52:25;;;;;;;20.17;13.60;;;11.00;99.90;;;;;;5032117;28;20182;-66
2022/09/26 04:54:51;;;;;;;20.13;13.52;;;11.00;99.90;;;;;;5047644;28;20041;-65
2022/09/26 04:57:16;;;;;;;22.92;12.93;;;11.00;99.90;;;;;;5037935;28;20439;-65
2022/09/26 04:59:42;;;;;;;20.27;12.63;;;11.00;99.90;;;;;;5027966;28;20044;-66
2022/09/26 05:02:08;;;;;;;17.90;12.68;;;11.00;99.90;;;;;;5051294;28;20037;-65
2022/09/26 05:04:34;;;;;;;23.52;12.50;;;11.10;99.90;;;;;;5045844;28;20037;-65
2022/09/26 05:07:00;;;;;;;18.80;13.35;;;11.10;99.90;;;;;;5053857;28;20049;-65
2022/09/26 05:09:26;;;;;;;20.17;12.50;;;11.00;99.90;;;;;;5045508;28;20131;-65
2022/09/26 05:11:51;;;;;;;18.88;12.77;;;11.00;99.90;;;;;;5044697;28;20368;-65
2022/09/26 05:14:17;;;;;;;19.02;12.07;;;11.10;99.90;;;;;;5053879;28;20048;-65
2022/09/26 05:16:43;;;;;;;18.33;11.10;;;11.10;99.90;;;;;;5053543;28;20108;-65
2022/09/26 05:19:08;;;;;;;16.83;10.95;;;11.10;99.90;;;;;;5042876;28;20047;-65
2022/09/26 05:21:34;;;;;;;14.80;12.02;;;11.00;99.90;;;;;;5043018;28;20041;-65
2022/09/26 05:26:50;;;;;;;14.82;10.57;;;11.00;99.90;;;;;;5053361;28;20040;-65
2022/09/26 05:29:16;;;;;;;16.35;11.23;;;11.00;99.90;;;;;;5045415;28;20045;-64
2022/09/26 05:31:42;;;;;;;15.43;9.43;;;11.00;99.90;;;;;;5044721;28;20037;-65
2022/09/26 05:34:12;;;;;;;16.65;11.02;;;11.00;99.90;;;;;;5053405;28;20446;-65
2022/09/26 05:36:41;;;;;;;19.05;10.10;;;11.00;99.90;;;;;;5044608;28;20041;-65
2022/09/26 05:40:55;;;;;;;16.25;10.30;;;11.00;99.90;;;;;;5049336;28;20152;-65
2022/09/26 05:41:53;;;;;;;14.98;9.98;;;11.00;99.90;;;;;;5050223;28;20517;-66
2022/09/26 05:44:19;;;;;;;13.48;9.10;;;11.00;99.90;;;;;;5048529;28;20049;-66
2022/09/26 05:46:46;;;;;;;14.82;9.65;;;11.00;99.90;;;;;;5039616;28;20385;-66
2022/09/26 05:49:13;;;;;;;15.55;10.35;;;11.00;99.90;;;;;;5050182;28;20114;-64
2022/09/26 05:51:40;;;;;;;18.08;9.80;;;11.00;99.90;;;;;;5051074;28;20048;-66
2022/09/26 05:54:06;;;;;;;14.18;10.02;;;11.00;99.90;;;;;;5039616;28;20038;-65
2022/09/26 05:56:36;;;;;;;14.38;9.60;;;11.00;99.90;;;;;;5049022;28;20036;-66
2022/09/26 05:59:02;;;;;;;12.80;9.55;;;11.00;99.90;;;;;;5034582;28;20402;-65
2022/09/26 06:01:28;;;;;;;16.55;10.18;;;11.00;99.90;;;;;;5053083;28;20055;-64
2022/09/26 06:03:53;;;;;;;17.25;9.15;;;11.00;99.90;;;;;;5031632;28;20495;-66
2022/09/26 06:06:19;;;;;;;13.88;9.02;;;11.00;99.90;;;;;;5049906;28;20064;-65
2022/09/26 06:08:45;;;;;;;13.13;8.88;;;11.00;99.90;;;;;;5053530;28;20116;-65
2022/09/26 06:11:21;;;;;;;13.52;8.77;;;11.00;99.90;;;;;;5029665;28;20036;-65
2022/09/26 06:13:48;;;;;;;15.68;8.85;;;11.10;99.90;;;;;;5047844;28;20045;-66
2022/09/26 06:16:17;;;;;;;14.50;8.07;;;11.00;99.90;;;;;;5052657;28;20051;-65
2022/09/26 06:18:43;;;;;;;16.80;9.25;;;11.00;99.90;;;;;;5050144;28;20392;-65
2022/09/26 06:21:12;;;;;;;14.10;8.82;;;11.00;99.90;;;;;;5044486;28;20048;-65
2022/09/26 06:23:37;;;;;;;14.50;8.68;;;11.00;99.90;;;;;;5052702;28;20116;-66
2022/09/26 06:26:07;;;;;;;11.23;8.35;;;11.00;99.90;;;;;;5048694;28;20717;-65
2022/09/26 06:28:33;;;;;;;13.50;8.75;;;11.00;99.90;;;;;;5042682;28;20108;-66
2022/09/26 06:30:59;;;;;;;13.25;8.80;;;11.00;99.90;;;;;;5050279;28;20036;-66
2022/09/26 06:33:25;;;;;;;12.77;7.85;;;11.00;99.90;;;;;;5034288;28;20055;-66
2022/09/26 06:36:02;;;;;;;12.77;8.07;;;11.00;99.90;;;;;;5043950;28;20128;-65
2022/09/26 06:38:28;;;;;;;13.27;7.90;;;11.00;99.90;;;;;;5034859;28;20075;-65
2022/09/26 06:40:53;;;;;;;9.70;7.22;;;11.00;99.90;;;;;;5052388;28;20040;-66
2022/09/26 06:43:19;;;;;;;13.77;7.93;;;11.00;99.90;;;;;;5027480;28;20249;-65
2022/09/26 06:45:47;;;;;;;12.18;7.65;;;11.00;99.90;;;;;;5050851;28;20498;-66
2022/09/26 06:48:17;;;;;;;12.45;7.22;;;11.10;99.90;;;;;;5031768;28;20170;-66
2022/09/26 06:50:43;;;;;;;13.98;7.10;;;11.10;99.90;;;;;;5026678;28;20041;-66
2022/09/26 06:53:09;;;;;;;10.13;7.18;;;11.10;99.90;;;;;;5033179;28;21216;-65
2022/09/26 06:55:34;;;;;;;12.13;7.85;;;11.10;99.90;;;;;;5034513;28;20047;-66
2022/09/26 06:58:00;;;;;;;11.80;6.63;;;11.10;99.90;;;;;;5047541;28;20415;-66
2022/09/26 07:00:28;;;;;;;9.88;6.95;;;11.10;99.90;;;;;;5038045;28;20083;-66
2022/09/26 07:02:55;;;;;;;10.07;6.53;;;11.10;99.90;;;;;;5043448;28;20044;-66
2022/09/26 07:05:22;;;;;;;11.15;6.25;;;11.20;99.90;;;;;;5046476;28;20033;-65
2022/09/26 07:07:48;;;;;;;10.77;6.15;;;11.20;99.90;;;;;;5034314;28;20041;-65
2022/09/26 07:10:17;;;;;;;11.07;6.40;;;11.20;99.90;;;;;;5051943;28;20124;-66
2022/09/26 07:12:45;;;;;;;8.38;6.07;;;11.30;99.90;;;;;;5033563;28;20411;-65
2022/09/26 07:15:15;;;;;;;10.15;5.90;;;11.30;99.90;;;;;;5024969;28;20068;-66
2022/09/26 07:17:42;;;;;;;8.50;5.93;;;11.30;99.90;;;;;;5045466;28;20037;-66
2022/09/26 07:20:16;;;;;;;9.10;6.05;;;11.30;99.90;;;;;;5043478;28;20041;-66
2022/09/26 07:22:42;;;;;;;12.20;6.50;;;11.30;99.90;;;;;;5051594;28;20033;-66
2022/09/26 07:25:08;;;;;;;8.25;5.43;;;11.30;99.90;;;;;;5047458;28;20071;-66
2022/09/26 07:27:34;;;;;;;8.75;5.90;;;11.30;99.90;;;;;;5045797;28;20119;-66
2022/09/26 07:30:00;;;;;;;10.32;5.55;;;11.30;99.90;;;;;;5051918;28;20040;-65
2022/09/26 07:32:29;;;;;;;9.95;5.93;;;11.30;99.90;;;;;;5049146;28;20278;-65
2022/09/26 07:34:58;;;;;;;8.98;5.93;;;11.30;99.90;;;;;;5037495;28;20057;-65
2022/09/26 07:37:24;;;;;;;9.57;6.20;;;11.30;99.90;;;;;;5051375;28;20041;-65
2022/09/26 07:39:49;;;;;;;9.07;5.35;;;11.30;99.90;;;;;;5051310;28;20410;-65
2022/09/26 07:42:16;;;;;;;10.18;5.88;;;11.30;99.90;;;;;;5046990;28;20038;-66
2022/09/26 07:44:43;;;;;;;11.73;5.93;;;11.30;99.90;;;;;;5032980;28;20040;-65
2022/09/26 07:50:13;;;;;;;9.15;6.32;;;11.30;99.90;;;;;;5045885;28;20045;-66
2022/09/26 07:52:43;;;;;;;10.27;6.35;;;11.20;99.90;;;;;;5040845;28;20040;-66
2022/09/26 07:55:11;;;;;;;12.48;6.55;;;11.20;99.90;;;;;;5050917;28;20037;-66
2022/09/26 07:57:38;;;;;;;10.80;5.88;;;11.10;99.90;;;;;;5030181;28;20115;-66
2022/09/26 08:00:11;;;;;;;9.65;6.43;;;11.10;99.90;;;;;;5045417;28;20033;-66
2022/09/26 08:02:41;;;;;;;12.43;6.80;;;11.10;99.90;;;;;;5021556;28;20049;-66
2022/09/26 08:05:08;;;;;;;8.68;6.65;;;11.20;99.90;;;;;;5043648;28;20102;-66
2022/09/26 08:07:35;;;;;;;11.85;6.25;;;11.20;99.90;;;;;;5028441;28;20043;-65
2022/09/26 08:10:02;;;;;;;12.40;5.95;;;11.20;99.90;;;;;;5043188;28;20069;-65
2022/09/26 08:12:37;;;;;;;10.25;6.85;;;11.30;99.90;;;;;;5090697;22;20029;-65
2022/09/26 08:15:05;;;;;;;10.77;6.18;;;11.40;99.90;;;;;;5027239;28;20506;-65
2022/09/26 08:17:31;;;;;;;10.05;6.15;;;11.40;99.90;;;;;;5029814;28;20038;-65
2022/09/26 08:20:00;;;;;;;8.30;5.60;;;11.50;99.90;;;;;;5030167;28;20407;-65
2022/09/26 08:22:27;;;;;;;10.32;5.93;;;11.60;99.90;;;;;;5028220;28;20044;-65
2022/09/26 08:24:53;;;;;;;12.93;6.18;;;11.80;99.90;;;;;;5028917;28;20045;-65
2022/09/26 08:27:21;;;;;;;7.82;5.22;;;11.90;99.90;;;;;;5030051;28;20037;-65
2022/09/26 08:29:48;;;;;;;9.82;5.60;;;12.00;99.90;;;;;;5029789;28;20414;-65
2022/09/26 08:32:15;;;;;;;10.00;5.78;;;12.00;99.90;;;;;;5028093;28;20025;-65
2022/09/26 08:34:41;;;;;;;11.70;5.80;;;12.00;99.90;;;;;;5027806;28;20041;-65
2022/09/26 08:37:06;;;;;;;10.23;5.53;;;12.00;99.90;;;;;;5029335;28;20026;-65
2022/09/26 08:39:32;;;;;;;7.53;5.53;;;12.00;99.90;;;;;;5028026;28;20203;-65
2022/09/26 08:42:10;;;;;;;10.00;5.40;;;12.00;99.90;;;;;;5029062;28;20036;-65
2022/09/26 08:44:54;;;;;;;8.02;5.47;;;12.00;99.90;;;;;;5029750;28;20048;-65
2022/09/26 08:47:41;;;;;;;13.05;5.82;;;12.00;99.90;;;;;;5010483;28;20049;-65
2022/09/26 08:50:34;;;;;;;9.02;5.40;;;12.00;99.90;;;;;;5019889;28;20116;-65
2022/09/26 08:53:05;;;;;;;7.20;5.28;;;12.00;99.90;;;;;;5029682;28;20073;-65
2022/09/26 08:55:39;;;;;;;9.15;5.32;;;12.00;99.90;;;;;;5030631;28;20045;-65
2022/09/26 08:58:25;;;;;;;9.20;5.30;;;12.00;99.90;;;;;;5027552;28;20041;-65
2022/09/26 09:00:56;;;;;;;14.65;5.60;;;12.00;99.90;;;;;;5029422;28;20073;-65
2022/09/26 09:03:38;;;;;;;10.82;5.80;;;12.10;99.90;;;;;;5030063;28;20124;-65
2022/09/26 09:06:13;;;;;;;12.90;5.95;;;12.10;99.90;;;;;;5028989;28;20033;-65
2022/09/26 09:08:45;;;;;;;9.77;5.32;;;12.10;99.90;;;;;;5029577;28;20052;-65
2022/09/26 09:11:38;;;;;;;8.80;5.00;;;12.20;99.90;;;;;;5029747;28;20037;-65
2022/09/26 09:14:28;;;;;;;16.13;6.10;;;12.30;99.90;;;;;;5026228;28;20152;-65
2022/09/26 09:17:13;;;;;;;8.35;5.22;;;12.30;99.90;;;;;;5029033;28;20412;-65
2022/09/26 09:20:19;;;;;;;10.73;5.47;;;12.30;99.90;;;;;;5011638;28;20076;-65
2022/09/26 09:23:37;;;;;;;9.98;5.45;;;12.40;99.90;;;;;;5026800;28;20049;-65
2022/09/26 09:26:17;;;;;;;13.43;5.40;;;12.40;99.90;;;;;;4944974;29;20055;-65
2022/09/26 09:29:01;;;;;;;7.32;4.72;;;12.40;99.90;;;;;;4948244;28;20121;-65
2022/09/26 09:31:32;;;;;;;8.32;5.45;;;12.40;99.90;;;;;;5007136;28;20043;-65
2022/09/26 09:34:02;;;;;;;8.85;5.82;;;12.40;99.90;;;;;;5026350;28;20558;-65
2022/09/26 09:36:36;;;;;;;9.23;5.88;;;12.40;99.90;;;;;;5028383;28;20082;-65
2022/09/26 09:39:05;;;;;;;9.80;6.10;;;12.40;99.90;;;;;;5027149;28;20033;-65
2022/09/26 09:41:39;;;;;;;9.82;5.70;;;12.30;99.90;;;;;;5027865;28;20029;-65
2022/09/26 09:44:27;;;;;;;11.80;6.28;;;12.30;99.90;;;;;;5028539;28;20042;-65
2022/09/26 09:46:53;;;;;;;12.80;5.78;;;12.20;99.90;;;;;;5026003;28;20132;-65
2022/09/26 09:49:23;;;;;;;9.88;6.18;;;12.20;99.90;;;;;;5015050;28;20121;-65
2022/09/26 09:52:11;;;;;;;10.80;6.10;;;12.20;99.90;;;;;;5032868;28;20083;-65
2022/09/26 09:55:01;;;;;;;10.20;5.47;;;12.20;99.90;;;;;;5030061;28;20083;-65
2022/09/26 09:57:39;;;;;;;10.95;6.07;;;12.20;99.90;;;;;;5031270;28;20029;-65
2022/09/26 10:00:19;;;;;;;9.85;5.95;;;12.20;99.90;;;;;;5033134;28;20365;-66
2022/09/26 10:03:12;;;;;;;10.13;6.32;;;12.20;99.90;;;;;;5015381;28;23002;-65
2022/09/26 10:05:42;;;;;;;10.68;5.90;;;12.20;99.90;;;;;;5030110;28;20452;-65
2022/09/26 10:08:18;;;;;;;11.40;6.20;;;12.20;99.90;;;;;;5033571;28;20037;-65
2022/09/26 10:11:11;;;;;;;11.07;6.57;;;12.20;99.90;;;;;;5033138;28;20068;-65
2022/09/26 10:13:42;;;;;;;14.00;6.93;;;12.20;99.90;;;;;;5030149;28;20087;-65
2022/09/26 10:16:10;;;;;;;10.73;6.57;;;12.10;99.90;;;;;;5029386;28;20827;-65
2022/09/26 10:19:02;;;;;;;13.00;6.72;;;12.10;99.90;;;;;;5015057;28;20045;-65
2022/09/26 10:21:33;;;;;;;10.55;7.07;;;12.10;99.90;;;;;;5020465;28;20050;-65
2022/09/26 10:24:01;;;;;;;11.93;6.88;;;12.10;99.90;;;;;;5032443;28;20037;-65
2022/09/26 10:26:33;;;;;;;12.38;6.88;;;12.10;99.90;;;;;;5032228;28;20038;-65
2022/09/26 10:29:17;;;;;;;17.90;7.10;;;12.10;99.90;;;;;;5031500;28;20037;-65
2022/09/26 10:31:44;;;;;;;11.35;6.80;;;12.20;99.90;;;;;;5030952;28;20125;-65
2022/09/26 10:34:31;;;;;;;11.10;6.75;;;12.10;99.90;;;;;;5031449;28;20045;-65
2022/09/26 10:37:21;;;;;;;10.20;7.18;;;12.20;99.90;;;;;;5028442;28;20045;-65
2022/09/26 10:42:40;;;;;;;12.45;7.00;;;12.40;99.90;;;;;;5032097;28;20049;-65
2022/09/26 10:45:28;;;;;;;12.02;6.80;;;12.40;99.90;;;;;;5031807;28;20046;-65
2022/09/26 10:47:55;;;;;;;13.43;6.93;;;12.50;99.90;;;;;;5031804;28;20132;-65
2022/09/26 10:50:26;;;;;;;11.75;7.18;;;12.60;99.90;;;;;;5032391;28;20458;-65
2022/09/26 10:53:09;;;;;;;10.05;6.50;;;12.70;99.90;;;;;;5011923;28;20045;-65
2022/09/26 10:55:39;;;;;;;10.60;6.32;;;12.60;99.90;;;;;;5028745;28;20044;-65
2022/09/26 10:58:08;;;;;;;12.15;6.72;;;12.50;99.90;;;;;;5032546;28;20069;-65
2022/09/26 11:00:38;;;;;;;11.43;7.57;;;12.40;99.90;;;;;;5031650;28;20044;-65
2022/09/26 11:03:07;;;;;;;13.05;7.78;;;12.40;99.90;;;;;;5026673;28;20521;-65
2022/09/26 11:05:58;;;;;;;11.98;7.60;;;12.30;99.90;;;;;;5031816;28;20116;-65
2022/09/26 11:08:29;;;;;;;11.02;7.65;;;12.30;99.90;;;;;;5032020;28;20037;-65
2022/09/26 11:11:03;;;;;;;;;;;12.20;99.90;;;;;;5029737;28;20049;-64
2022/09/26 11:13:46;;;;;;;12.73;8.38;;;12.20;99.90;;;;;;5031462;28;19916;-65
2022/09/26 11:16:18;;;;;;;13.68;7.65;;;12.10;99.90;;;;;;5013973;28;20044;-64
2022/09/26 11:19:00;;;;;;;14.38;8.38;;;12.10;99.90;;;;;;5010785;28;20068;-64
2022/09/26 11:21:44;;;;;;;;;;;12.10;99.90;;;;;;5028952;28;20083;-65
2022/09/26 11:24:41;;;;;;;13.77;9.00;;;12.10;99.90;;;;;;5030879;28;19956;-64
2022/09/26 11:27:32;;;;;;;16.98;9.60;;;12.20;99.90;;;;;;5017014;28;20049;-64
2022/09/26 11:30:07;;;;;;;10.97;9.10;;;12.20;99.90;;;;;;5031320;28;20161;-64
2022/09/26 11:32:39;;;;;;;14.90;10.00;;;12.20;99.90;;;;;;5031278;28;20328;-64
2022/09/26 11:35:19;;;;;;;12.20;9.60;;;12.20;99.90;;;;;;5028767;28;20496;-64
2022/09/26 11:38:04;;;;;;;12.57;8.75;;;12.20;99.90;;;;;;5031520;28;20038;-65
2022/09/26 11:40:48;;;;;;;14.98;8.82;;;12.20;99.90;;;;;;5031448;28;20052;-65
2022/09/26 11:43:39;;;;;;;14.35;8.93;;;12.30;99.90;;;;;;5023315;28;20041;-65
2022/09/26 11:46:14;;;;;;;14.63;9.15;;;12.30;99.90;;;;;;5030781;28;20103;-65
2022/09/26 11:48:42;;;;;;;13.80;8.70;;;12.30;99.90;;;;;;5030994;28;20049;-65
2022/09/26 11:51:32;;;;;;;14.57;9.90;;;12.30;99.90;;;;;;5026425;28;20037;-65
2022/09/26 11:54:08;;;;;;;11.48;8.35;;;12.40;99.90;;;;;;5027513;28;20091;-65
2022/09/26 11:57:01;;;;;;;14.40;8.90;;;12.50;99.90;;;;;;5031286;28;20041;-65
2022/09/26 11:59:45;;;;;;;10.30;8.48;;;12.40;99.90;;;;;;5025446;28;20041;-64
2022/09/26 12:02:35;;;;;;;14.13;8.95;;;12.40;99.90;;;;;;5011661;28;20486;-65
2022/09/26 12:05:38;;;;;;;11.90;8.45;;;12.40;99.90;;;;;;5013422;28;20047;-65
2022/09/26 12:08:39;;;;;;;12.88;7.82;;;12.30;99.90;;;;;;5030860;28;20661;-65
2022/09/26 12:11:41;;;;;;;12.52;8.52;;;12.30;99.90;;;;;;5029552;28;20663;-65
2022/09/26 12:14:10;;;;;;;13.15;7.35;;;12.30;99.90;;;;;;5012817;28;20495;-65
2022/09/26 12:17:00;;;;;;;13.45;8.20;;;12.20;99.90;;;;;;5028231;28;20033;-65
2022/09/26 12:20:15;;;;;;;12.15;7.70;;;12.20;99.90;;;;;;5021080;28;20069;-65
2022/09/26 12:22:57;;;;;;;9.80;7.07;;;12.20;99.90;;;;;;4948724;28;20062;-65
2022/09/26 12:25:36;;;;;;;10.38;6.18;;;12.30;99.90;;;;;;5030801;28;20053;-65
2022/09/26 12:28:07;;;;;;;13.13;7.35;;;12.30;99.90;;;;;;5027915;28;20053;-65
2022/09/26 12:31:28;;;;;;;9.07;6.60;;;12.20;99.90;;;;;;5029881;28;20037;-65
2022/09/26 12:34:36;;;;;;;10.68;7.07;;;12.20;99.90;;;;;;4944016;29;20054;-65
2022/09/26 12:37:14;;;;;;;8.52;6.40;;;12.20;99.90;;;;;;5027930;28;20092;-65
2022/09/26 12:40:09;;;;;;;10.45;6.78;;;12.30;99.90;;;;;;5026486;28;20037;-65
2022/09/26 12:42:53;;;;;;;7.35;5.63;;;12.30;99.90;;;;;;5025423;28;20053;-65
2022/09/26 12:45:30;;;;;;;7.10;5.95;;;12.30;99.90;;;;;;5029077;28;20041;-64
2022/09/26 12:48:28;;;;;;;7.80;6.10;;;12.30;99.90;;;;;;5028493;28;20424;-65
2022/09/26 12:50:59;;;;;;;7.93;5.55;;;12.40;99.90;;;;;;5026337;28;20463;-65
2022/09/26 12:53:34;;;;;;;7.25;6.30;;;12.40;99.90;;;;;;5029518;28;20112;-65
2022/09/26 12:56:25;;;;;;;7.50;5.50;;;12.40;99.90;;;;;;5029956;28;20037;-65
2022/09/26 12:59:36;;;;;;;6.32;5.50;;;12.40;99.90;;;;;;5027091;28;20091;-65
2022/09/26 13:02:19;;;;;;;7.90;5.75;;;12.40;99.90;;;;;;5009535;28;20484;-65
2022/09/26 13:05:26;;;;;;;6.32;5.43;;;12.40;99.90;;;;;;5029971;28;20085;-65
2022/09/26 13:08:18;;;;;;;7.00;5.22;;;12.40;99.90;;;;;;5024753;28;20057;-65
2022/09/26 13:11:29;;;;;;;7.30;5.15;;;12.30;99.90;;;;;;5025591;28;20049;-65
2022/09/26 13:14:12;;;;;;;6.32;4.97;;;12.40;99.90;;;;;;5002994;28;20053;-65
2022/09/26 13:17:05;;;;;;;6.55;5.45;;;12.40;99.90;;;;;;5012517;28;20057;-65
2022/09/26 13:19:55;;;;;;;6.93;5.75;;;12.40;99.90;;;;;;5030670;28;20052;-65
2022/09/26 13:22:26;;;;;;;7.20;5.20;;;12.40;99.90;;;;;;5028599;28;20034;-65
2022/09/26 13:25:06;;;;;;;6.90;5.40;;;12.40;99.90;;;;;;5030908;28;20041;-64
2022/09/26 13:27:40;;;;;;;8.20;5.20;;;12.40;99.90;;;;;;5033539;28;20045;-65